Anchorage, AK

3:23 AM AKST on March 06, 2015 (GMT -0900)
Merrill | Change Station
CLOSE
Current Station
Airport
Location: Anchorage Merrill,
Elevation: 135 ft
Nearby Weather Stations
Active Advisory: Winter Weather Advisory

Elev 135 ft 61.22 °N, 149.85 °W | Updated 1 hour ago

Light Rain
Light Rain
34 °F
Feels Like 34 °F
N
0
Wind Variable Wind from North

Today
High -- | Low -- °F
--% Chance of Precip.
Yesterday
High -- | Low -- °F
Precip. -- in
7:44 AM 6:37 PM
Waxing Gibbous, 99% visible
Pressure 30.07 in
Visibility 7.0 miles
Clouds Few 400 ft
Mostly Cloudy 800 ft
Overcast 1900 ft
Dew Point 32 °F
Humidity 92%
Rainfall 0.10 in
Snow Depth Not available.
UV 0 out of 12
Pollen Not available.
Air Quality Not available.
Flu Activity Not available.
METAR PAMR 061053Z 00000KT 7SM -RA FEW004 BKN008 OVC019 01/00 A3006 RMK AO2 SLP183 P0005 T00110000

More Conditions Fewer Conditions

Pressure 30.07 in
Visibility 7.0 miles
Clouds Few 400 ft
Mostly Cloudy 800 ft
Overcast 1900 ft
Dew Point 32 °F
Humidity 92%
Rainfall 0.10 in
Snow Depth Not available.
UV 0 out of 12
Pollen Not available.
Air Quality Not available.
Flu Activity Not available.
METAR PAMR 061053Z 00000KT 7SM -RA FEW004 BKN008 OVC019 01/00 A3006 RMK AO2 SLP183 P0005 T00110000

More Conditions Fewer Conditions

10-Day Weather Forecast

Almanac

Astronomy

Mar. 06, 2015 Rise Set
Actual Time
Civil Twilight
Nautical Twilight
Astronomical Twilight
Moon
Length of Visible Light
Length of Day
Tomorrow will be .
, % of the Moon is Illuminated

Today's Extremes

State Highs State Lows

Community

WunderPhotos

Upload Photos

1,803,242 photos uploaded!

WunderBlogs® & News

Nearby

Air Quality

  Air Quality AQ Index Pollutant
Not available.

Snow Depth

Station Depth Elevation

Earthquake Activity

City Distance Mag. Time & Date
Minimum magnitude displayed is 2.5.

Coastal Water Temperatures

Place Temperature

Nearby Weather Stations

Winter Weather Advisory
Statement as of 4:24 PM AKST on March 05, 2015

... Winter Weather Advisory for snow in effect from 6 PM Friday to
noon akst Saturday along the hillside...

* snow... 6 to 9 inches.

* Timing... snow develops Friday evening and then tapers off late
Saturday morning.

* Impacts... travel may be difficult.

Precautionary/preparedness actions...

Travel may be difficult. Visibilities will be limited in heavy
snowfall.